Estación Meteorológica Peña el Pijo (Robertgarden) [ 04/19/21 04:06:23 CEST ]

Fecha Hora Presion(HPa) Temp (°C) Humedad % Rocio (°C) Viento ( m/s) Direccion Lluvia 1Hora(mm) Lluvia 24H(mm) LLuvia Total(mm)
2021-Apr-17 01:09:26 1006.200 4.9 87 2.9 - N     89.61
2021-Apr-17 02:09:46 1006.300 5.8 87 3.8 - N     89.61
2021-Apr-17 03:09:49 1005.600 5.8 86 3.6 - N     89.61
2021-Apr-17 04:11:05 1005.500 5.9 85 3.5 - N     89.61
2021-Apr-17 05:11:35 1005.200 5.6 86 3.4 - N     89.61
2021-Apr-17 06:09:39 1005.000 4.5 88 2.7 - N     89.61
2021-Apr-17 07:09:07 1005.000 3.1 88 1.3 - N     89.61
2021-Apr-17 08:09:23 1005.500 2.7 89 1.0 - N     89.61
2021-Apr-17 09:09:34 1005.900 10.7 66 4.6 - N     89.61
2021-Apr-17 10:09:32 1005.500 15.8 49 5.1 - N     89.61
2021-Apr-17 11:09:18 1005.800 17.1 41 3.7 - N     89.61
2021-Apr-17 12:09:26 1005.400 16.9 37 2.0 - N     89.61
2021-Apr-17 13:09:50 1005.300 18.1 30 0.3 - N     89.61
2021-Apr-17 14:09:27 1005.000 18.1 28 -0.8 - N     89.61
2021-Apr-17 15:09:48 1004.600 17.9 31 0.5 - N     89.61
2021-Apr-17 16:09:24 1004.500 17.9 28 -1.0 - N     89.61
2021-Apr-17 17:09:22 1004.400 17.9 26 -2.1 - N     89.61
2021-Apr-17 18:09:34 1004.800 18.8 24 -2.4 - N     89.61
2021-Apr-17 19:09:43 1005.200 15.8 25 -4.4 - N     89.61
2021-Apr-17 20:09:48 1005.600 11.9 32 -4.3 - N     89.61
2021-Apr-17 21:09:24 1006.400 10.6 33 -5.1 - N     89.61
2021-Apr-17 22:09:49 1007.000 7.4 48 -2.9 - N     89.61
2021-Apr-17 23:09:36 1007.600 5.4 61 -1.5 - N     89.61

Temperatura Máxima:18°    Temperatura Mínima:
Presión Máxima:1007.600 Hpa    Presión Mínima:1004.400 Hpa


Volver